sensor_id;sensor_type;location;lat;lon;timestamp;P1;durP1;ratioP1;P2;durP2;ratioP2
78228;SDS011;67502;49.142;9.124;2023-02-07T00:01:18;5.60;;;3.53;;
78228;SDS011;67502;49.142;9.124;2023-02-07T00:03:45;9.30;;;3.95;;
78228;SDS011;67502;49.142;9.124;2023-02-07T00:06:16;7.20;;;4.35;;
78228;SDS011;67502;49.142;9.124;2023-02-07T00:08:46;6.80;;;4.15;;
78228;SDS011;67502;49.142;9.124;2023-02-07T00:11:14;7.72;;;4.18;;
78228;SDS011;67502;49.142;9.124;2023-02-07T00:13:42;8.05;;;4.00;;
78228;SDS011;67502;49.142;9.124;2023-02-07T00:16:09;10.32;;;4.55;;
78228;SDS011;67502;49.142;9.124;2023-02-07T00:21:04;8.30;;;4.50;;
78228;SDS011;67502;49.142;9.124;2023-02-07T00:23:33;10.98;;;4.88;;
78228;SDS011;67502;49.142;9.124;2023-02-07T00:26:00;7.80;;;4.95;;
78228;SDS011;67502;49.142;9.124;2023-02-07T00:28:27;9.48;;;4.90;;
78228;SDS011;67502;49.142;9.124;2023-02-07T00:33:41;8.05;;;5.00;;
78228;SDS011;67502;49.142;9.124;2023-02-07T00:36:09;7.80;;;5.60;;
78228;SDS011;67502;49.142;9.124;2023-02-07T00:38:38;9.57;;;5.68;;
78228;SDS011;67502;49.142;9.124;2023-02-07T00:41:05;8.88;;;5.43;;
78228;SDS011;67502;49.142;9.124;2023-02-07T00:43:32;11.65;;;6.95;;
78228;SDS011;67502;49.142;9.124;2023-02-07T00:46:01;12.10;;;6.35;;
78228;SDS011;67502;49.142;9.124;2023-02-07T00:48:29;11.30;;;5.63;;
78228;SDS011;67502;49.142;9.124;2023-02-07T00:53:23;9.90;;;5.68;;
78228;SDS011;67502;49.142;9.124;2023-02-07T00:55:50;13.70;;;6.82;;
78228;SDS011;67502;49.142;9.124;2023-02-07T00:58:17;11.02;;;7.03;;
78228;SDS011;67502;49.142;9.124;2023-02-07T01:00:44;10.35;;;6.82;;
78228;SDS011;67502;49.142;9.124;2023-02-07T01:03:11;13.50;;;7.53;;
78228;SDS011;67502;49.142;9.124;2023-02-07T01:05:38;14.38;;;7.20;;
78228;SDS011;67502;49.142;9.124;2023-02-07T01:08:04;14.98;;;7.32;;
78228;SDS011;67502;49.142;9.124;2023-02-07T01:10:31;15.68;;;7.53;;
78228;SDS011;67502;49.142;9.124;2023-02-07T01:12:58;15.45;;;7.75;;
78228;SDS011;67502;49.142;9.124;2023-02-07T01:15:25;14.07;;;8.45;;
78228;SDS011;67502;49.142;9.124;2023-02-07T01:20:18;12.25;;;7.57;;
78228;SDS011;67502;49.142;9.124;2023-02-07T01:22:45;15.70;;;8.82;;
78228;SDS011;67502;49.142;9.124;2023-02-07T01:25:11;17.20;;;8.85;;
78228;SDS011;67502;49.142;9.124;2023-02-07T01:27:38;17.83;;;8.77;;
78228;SDS011;67502;49.142;9.124;2023-02-07T01:30:04;15.55;;;9.35;;
78228;SDS011;67502;49.142;9.124;2023-02-07T01:32:32;15.48;;;8.77;;
78228;SDS011;67502;49.142;9.124;2023-02-07T01:37:25;16.05;;;8.10;;
78228;SDS011;67502;49.142;9.124;2023-02-07T01:39:52;18.88;;;8.45;;
78228;SDS011;67502;49.142;9.124;2023-02-07T01:42:21;16.77;;;9.52;;
78228;SDS011;67502;49.142;9.124;2023-02-07T01:47:17;19.70;;;11.55;;
78228;SDS011;67502;49.142;9.124;2023-02-07T01:49:46;18.17;;;9.90;;
78228;SDS011;67502;49.142;9.124;2023-02-07T01:52:48;24.65;;;11.63;;
78228;SDS011;67502;49.142;9.124;2023-02-07T01:57:37;15.32;;;8.50;;
78228;SDS011;67502;49.142;9.124;2023-02-07T02:00:04;12.88;;;8.30;;
78228;SDS011;67502;49.142;9.124;2023-02-07T02:02:32;20.70;;;9.40;;
78228;SDS011;67502;49.142;9.124;2023-02-07T02:05:00;17.42;;;10.23;;
78228;SDS011;67502;49.142;9.124;2023-02-07T02:07:28;19.27;;;10.30;;
78228;SDS011;67502;49.142;9.124;2023-02-07T02:09:58;15.88;;;9.73;;
78228;SDS011;67502;49.142;9.124;2023-02-07T02:12:36;20.23;;;10.25;;
78228;SDS011;67502;49.142;9.124;2023-02-07T02:23:12;21.63;;;10.18;;
78228;SDS011;67502;49.142;9.124;2023-02-07T02:28:49;17.77;;;9.63;;
78228;SDS011;67502;49.142;9.124;2023-02-07T02:42:38;20.10;;;10.07;;
78228;SDS011;67502;49.142;9.124;2023-02-07T02:45:15;18.35;;;9.80;;
78228;SDS011;67502;49.142;9.124;2023-02-07T02:47:47;18.08;;;10.50;;
78228;SDS011;67502;49.142;9.124;2023-02-07T02:50:23;17.98;;;10.48;;
78228;SDS011;67502;49.142;9.124;2023-02-07T02:52:53;17.35;;;10.27;;
78228;SDS011;67502;49.142;9.124;2023-02-07T02:55:42;16.80;;;9.80;;
78228;SDS011;67502;49.142;9.124;2023-02-07T03:09:40;20.00;;;10.15;;
78228;SDS011;67502;49.142;9.124;2023-02-07T03:12:22;19.38;;;10.57;;
78228;SDS011;67502;49.142;9.124;2023-02-07T03:14:55;17.83;;;10.43;;
78228;SDS011;67502;49.142;9.124;2023-02-07T03:20:36;22.98;;;11.63;;
78228;SDS011;67502;49.142;9.124;2023-02-07T03:23:08;22.50;;;11.38;;
78228;SDS011;67502;49.142;9.124;2023-02-07T03:25:36;22.52;;;11.65;;
78228;SDS011;67502;49.142;9.124;2023-02-07T03:28:06;22.30;;;11.48;;
78228;SDS011;67502;49.142;9.124;2023-02-07T03:30:35;19.63;;;11.52;;
78228;SDS011;67502;49.142;9.124;2023-02-07T03:33:04;20.20;;;10.40;;
78228;SDS011;67502;49.142;9.124;2023-02-07T03:35:40;21.60;;;11.15;;
78228;SDS011;67502;49.142;9.124;2023-02-07T03:38:12;17.52;;;10.45;;
78228;SDS011;67502;49.142;9.124;2023-02-07T03:40:41;20.10;;;11.20;;
78228;SDS011;67502;49.142;9.124;2023-02-07T03:43:15;19.50;;;10.57;;
78228;SDS011;67502;49.142;9.124;2023-02-07T03:45:45;19.77;;;10.68;;
78228;SDS011;67502;49.142;9.124;2023-02-07T03:48:12;18.45;;;10.85;;
78228;SDS011;67502;49.142;9.124;2023-02-07T03:50:38;18.35;;;10.70;;
78228;SDS011;67502;49.142;9.124;2023-02-07T03:53:05;18.83;;;10.57;;
78228;SDS011;67502;49.142;9.124;2023-02-07T03:55:31;22.23;;;10.98;;
78228;SDS011;67502;49.142;9.124;2023-02-07T03:57:58;17.17;;;10.40;;
78228;SDS011;67502;49.142;9.124;2023-02-07T04:00:25;18.60;;;10.52;;
78228;SDS011;67502;49.142;9.124;2023-02-07T04:02:51;18.63;;;11.15;;
78228;SDS011;67502;49.142;9.124;2023-02-07T04:05:18;23.73;;;11.57;;
78228;SDS011;67502;49.142;9.124;2023-02-07T04:07:44;18.83;;;10.60;;
78228;SDS011;67502;49.142;9.124;2023-02-07T04:10:11;21.52;;;11.88;;
78228;SDS011;67502;49.142;9.124;2023-02-07T04:12:37;24.05;;;11.98;;
78228;SDS011;67502;49.142;9.124;2023-02-07T04:15:04;19.25;;;10.75;;
78228;SDS011;67502;49.142;9.124;2023-02-07T04:17:32;19.83;;;11.00;;
78228;SDS011;67502;49.142;9.124;2023-02-07T04:19:59;19.73;;;10.65;;
78228;SDS011;67502;49.142;9.124;2023-02-07T04:22:27;21.92;;;10.65;;
78228;SDS011;67502;49.142;9.124;2023-02-07T04:24:54;19.95;;;11.07;;
78228;SDS011;67502;49.142;9.124;2023-02-07T04:29:48;17.13;;;9.77;;
78228;SDS011;67502;49.142;9.124;2023-02-07T04:32:15;24.02;;;11.27;;
78228;SDS011;67502;49.142;9.124;2023-02-07T04:34:41;22.75;;;12.13;;
78228;SDS011;67502;49.142;9.124;2023-02-07T04:37:08;23.60;;;11.55;;
78228;SDS011;67502;49.142;9.124;2023-02-07T04:39:35;21.27;;;12.55;;
78228;SDS011;67502;49.142;9.124;2023-02-07T04:42:01;18.00;;;11.13;;
78228;SDS011;67502;49.142;9.124;2023-02-07T04:44:28;17.50;;;10.02;;
78228;SDS011;67502;49.142;9.124;2023-02-07T04:46:54;19.77;;;11.27;;
78228;SDS011;67502;49.142;9.124;2023-02-07T04:49:21;17.23;;;10.25;;
78228;SDS011;67502;49.142;9.124;2023-02-07T04:51:47;20.20;;;10.98;;
78228;SDS011;67502;49.142;9.124;2023-02-07T04:54:14;24.02;;;11.80;;
78228;SDS011;67502;49.142;9.124;2023-02-07T04:56:40;22.48;;;11.50;;
78228;SDS011;67502;49.142;9.124;2023-02-07T04:59:07;21.63;;;11.50;;
78228;SDS011;67502;49.142;9.124;2023-02-07T05:01:33;19.35;;;10.95;;
78228;SDS011;67502;49.142;9.124;2023-02-07T05:04:00;18.92;;;10.75;;
78228;SDS011;67502;49.142;9.124;2023-02-07T05:06:26;24.63;;;12.00;;
78228;SDS011;67502;49.142;9.124;2023-02-07T05:08:52;22.33;;;11.25;;
78228;SDS011;67502;49.142;9.124;2023-02-07T05:11:19;23.33;;;11.80;;
78228;SDS011;67502;49.142;9.124;2023-02-07T05:13:45;20.55;;;10.60;;
78228;SDS011;67502;49.142;9.124;2023-02-07T05:16:12;27.48;;;12.93;;
78228;SDS011;67502;49.142;9.124;2023-02-07T05:18:38;26.95;;;13.23;;
78228;SDS011;67502;49.142;9.124;2023-02-07T05:21:05;25.05;;;12.20;;
78228;SDS011;67502;49.142;9.124;2023-02-07T05:23:31;20.63;;;12.45;;
78228;SDS011;67502;49.142;9.124;2023-02-07T05:25:58;24.30;;;11.95;;
78228;SDS011;67502;49.142;9.124;2023-02-07T05:28:24;25.75;;;10.93;;
78228;SDS011;67502;49.142;9.124;2023-02-07T05:30:51;20.75;;;11.45;;
78228;SDS011;67502;49.142;9.124;2023-02-07T05:33:20;27.77;;;12.23;;
78228;SDS011;67502;49.142;9.124;2023-02-07T05:35:46;24.90;;;12.73;;
78228;SDS011;67502;49.142;9.124;2023-02-07T05:38:14;28.52;;;12.25;;
78228;SDS011;67502;49.142;9.124;2023-02-07T05:40:42;22.50;;;12.48;;
78228;SDS011;67502;49.142;9.124;2023-02-07T05:43:10;21.38;;;11.65;;
78228;SDS011;67502;49.142;9.124;2023-02-07T05:48:04;23.38;;;11.60;;
78228;SDS011;67502;49.142;9.124;2023-02-07T05:52:58;20.77;;;10.82;;
78228;SDS011;67502;49.142;9.124;2023-02-07T05:55:25;19.13;;;11.73;;
78228;SDS011;67502;49.142;9.124;2023-02-07T05:57:51;27.90;;;12.00;;
78228;SDS011;67502;49.142;9.124;2023-02-07T06:00:18;22.27;;;12.10;;
78228;SDS011;67502;49.142;9.124;2023-02-07T06:02:45;21.60;;;11.88;;
78228;SDS011;67502;49.142;9.124;2023-02-07T06:05:13;24.75;;;12.75;;
78228;SDS011;67502;49.142;9.124;2023-02-07T06:07:41;23.13;;;12.73;;
78228;SDS011;67502;49.142;9.124;2023-02-07T06:10:11;21.23;;;11.80;;
78228;SDS011;67502;49.142;9.124;2023-02-07T06:12:38;23.15;;;12.57;;
78228;SDS011;67502;49.142;9.124;2023-02-07T06:15:05;21.13;;;11.52;;
78228;SDS011;67502;49.142;9.124;2023-02-07T06:17:32;22.05;;;10.88;;
78228;SDS011;67502;49.142;9.124;2023-02-07T06:19:58;27.48;;;13.65;;
78228;SDS011;67502;49.142;9.124;2023-02-07T06:22:25;25.77;;;13.20;;
78228;SDS011;67502;49.142;9.124;2023-02-07T06:24:51;19.83;;;12.38;;
78228;SDS011;67502;49.142;9.124;2023-02-07T06:27:18;19.48;;;11.60;;
78228;SDS011;67502;49.142;9.124;2023-02-07T06:29:44;18.23;;;10.55;;
78228;SDS011;67502;49.142;9.124;2023-02-07T06:32:11;20.73;;;11.65;;
78228;SDS011;67502;49.142;9.124;2023-02-07T06:34:37;20.00;;;12.15;;
78228;SDS011;67502;49.142;9.124;2023-02-07T06:37:04;19.13;;;10.02;;
78228;SDS011;67502;49.142;9.124;2023-02-07T06:39:30;18.85;;;11.75;;
78228;SDS011;67502;49.142;9.124;2023-02-07T06:41:57;20.77;;;11.15;;
78228;SDS011;67502;49.142;9.124;2023-02-07T06:44:23;21.10;;;11.52;;
78228;SDS011;67502;49.142;9.124;2023-02-07T06:46:50;20.90;;;12.10;;
78228;SDS011;67502;49.142;9.124;2023-02-07T06:49:16;26.05;;;11.95;;
78228;SDS011;67502;49.142;9.124;2023-02-07T06:51:43;21.92;;;12.52;;
78228;SDS011;67502;49.142;9.124;2023-02-07T06:54:09;18.83;;;11.95;;
78228;SDS011;67502;49.142;9.124;2023-02-07T06:56:36;24.40;;;11.50;;
78228;SDS011;67502;49.142;9.124;2023-02-07T06:59:03;24.40;;;12.80;;
78228;SDS011;67502;49.142;9.124;2023-02-07T07:01:30;22.02;;;11.65;;
78228;SDS011;67502;49.142;9.124;2023-02-07T07:03:56;22.00;;;11.82;;
78228;SDS011;67502;49.142;9.124;2023-02-07T07:08:51;19.58;;;9.88;;
78228;SDS011;67502;49.142;9.124;2023-02-07T07:11:17;22.33;;;12.40;;
78228;SDS011;67502;49.142;9.124;2023-02-07T07:13:44;23.33;;;12.23;;
78228;SDS011;67502;49.142;9.124;2023-02-07T07:16:11;21.08;;;11.30;;
78228;SDS011;67502;49.142;9.124;2023-02-07T07:18:38;20.00;;;12.05;;
78228;SDS011;67502;49.142;9.124;2023-02-07T07:21:05;21.67;;;12.45;;
78228;SDS011;67502;49.142;9.124;2023-02-07T07:23:32;21.90;;;11.77;;
78228;SDS011;67502;49.142;9.124;2023-02-07T07:25:59;24.77;;;12.65;;
78228;SDS011;67502;49.142;9.124;2023-02-07T07:28:25;21.85;;;12.50;;
78228;SDS011;67502;49.142;9.124;2023-02-07T07:30:52;19.92;;;11.38;;
78228;SDS011;67502;49.142;9.124;2023-02-07T07:33:18;19.98;;;11.95;;
78228;SDS011;67502;49.142;9.124;2023-02-07T07:35:45;22.88;;;12.07;;
78228;SDS011;67502;49.142;9.124;2023-02-07T07:38:11;19.45;;;11.20;;
78228;SDS011;67502;49.142;9.124;2023-02-07T07:40:38;22.05;;;12.82;;
78228;SDS011;67502;49.142;9.124;2023-02-07T07:43:05;22.85;;;11.93;;
78228;SDS011;67502;49.142;9.124;2023-02-07T07:45:31;19.55;;;11.20;;
78228;SDS011;67502;49.142;9.124;2023-02-07T07:47:58;20.05;;;12.05;;
78228;SDS011;67502;49.142;9.124;2023-02-07T07:50:24;19.58;;;9.50;;
78228;SDS011;67502;49.142;9.124;2023-02-07T07:52:51;19.20;;;10.23;;
78228;SDS011;67502;49.142;9.124;2023-02-07T07:55:17;21.38;;;11.02;;
78228;SDS011;67502;49.142;9.124;2023-02-07T07:57:44;17.23;;;9.25;;
78228;SDS011;67502;49.142;9.124;2023-02-07T08:00:11;17.20;;;9.75;;
78228;SDS011;67502;49.142;9.124;2023-02-07T08:12:24;18.17;;;9.32;;
78228;SDS011;67502;49.142;9.124;2023-02-07T08:14:50;17.42;;;10.20;;
78228;SDS011;67502;49.142;9.124;2023-02-07T08:17:17;20.75;;;9.55;;
78228;SDS011;67502;49.142;9.124;2023-02-07T08:19:44;19.85;;;9.35;;
78228;SDS011;67502;49.142;9.124;2023-02-07T08:22:10;15.02;;;8.57;;
78228;SDS011;67502;49.142;9.124;2023-02-07T08:24:39;16.52;;;9.40;;
78228;SDS011;67502;49.142;9.124;2023-02-07T08:27:07;18.20;;;10.90;;
78228;SDS011;67502;49.142;9.124;2023-02-07T08:29:33;16.77;;;9.82;;
78228;SDS011;67502;49.142;9.124;2023-02-07T08:32:00;15.63;;;8.85;;
78228;SDS011;67502;49.142;9.124;2023-02-07T08:34:26;16.42;;;8.05;;
78228;SDS011;67502;49.142;9.124;2023-02-07T08:41:46;15.48;;;9.18;;
78228;SDS011;67502;49.142;9.124;2023-02-07T08:44:13;15.38;;;8.90;;
78228;SDS011;67502;49.142;9.124;2023-02-07T08:46:40;17.73;;;9.45;;
78228;SDS011;67502;49.142;9.124;2023-02-07T08:49:06;17.63;;;9.45;;
78228;SDS011;67502;49.142;9.124;2023-02-07T08:51:33;17.92;;;9.73;;
78228;SDS011;67502;49.142;9.124;2023-02-07T08:53:59;16.05;;;8.77;;
78228;SDS011;67502;49.142;9.124;2023-02-07T08:56:25;19.02;;;9.85;;
78228;SDS011;67502;49.142;9.124;2023-02-07T08:58:52;18.30;;;9.25;;
78228;SDS011;67502;49.142;9.124;2023-02-07T09:01:18;24.10;;;11.00;;
78228;SDS011;67502;49.142;9.124;2023-02-07T09:03:45;15.93;;;9.80;;
78228;SDS011;67502;49.142;9.124;2023-02-07T09:06:11;16.70;;;9.80;;
78228;SDS011;67502;49.142;9.124;2023-02-07T09:08:38;16.38;;;9.82;;
78228;SDS011;67502;49.142;9.124;2023-02-07T09:11:05;14.82;;;9.63;;
78228;SDS011;67502;49.142;9.124;2023-02-07T09:13:34;17.95;;;9.50;;
78228;SDS011;67502;49.142;9.124;2023-02-07T09:16:01;15.68;;;10.25;;
78228;SDS011;67502;49.142;9.124;2023-02-07T09:18:28;14.73;;;9.43;;
78228;SDS011;67502;49.142;9.124;2023-02-07T09:20:55;17.90;;;10.02;;
78228;SDS011;67502;49.142;9.124;2023-02-07T09:23:21;18.88;;;10.07;;
78228;SDS011;67502;49.142;9.124;2023-02-07T09:25:49;15.23;;;9.73;;
78228;SDS011;67502;49.142;9.124;2023-02-07T09:28:17;16.77;;;8.95;;
78228;SDS011;67502;49.142;9.124;2023-02-07T09:30:45;17.08;;;8.95;;
78228;SDS011;67502;49.142;9.124;2023-02-07T09:33:13;18.35;;;9.40;;
78228;SDS011;67502;49.142;9.124;2023-02-07T09:35:41;19.40;;;10.27;;
78228;SDS011;67502;49.142;9.124;2023-02-07T09:38:13;13.25;;;9.90;;
78228;SDS011;67502;49.142;9.124;2023-02-07T09:40:41;19.55;;;8.93;;
78228;SDS011;67502;49.142;9.124;2023-02-07T09:48:45;14.73;;;10.02;;
78228;SDS011;67502;49.142;9.124;2023-02-07T09:51:17;16.02;;;9.98;;
78228;SDS011;67502;49.142;9.124;2023-02-07T09:53:53;15.75;;;9.88;;
78228;SDS011;67502;49.142;9.124;2023-02-07T09:56:23;15.60;;;9.57;;
78228;SDS011;67502;49.142;9.124;2023-02-07T09:58:56;13.38;;;9.43;;
78228;SDS011;67502;49.142;9.124;2023-02-07T10:01:35;16.95;;;10.35;;
78228;SDS011;67502;49.142;9.124;2023-02-07T10:06:38;16.92;;;9.73;;
78228;SDS011;67502;49.142;9.124;2023-02-07T10:09:09;12.50;;;8.75;;
78228;SDS011;67502;49.142;9.124;2023-02-07T10:11:49;16.58;;;10.40;;
78228;SDS011;67502;49.142;9.124;2023-02-07T10:27:59;15.30;;;9.25;;
78228;SDS011;67502;49.142;9.124;2023-02-07T10:30:27;15.98;;;9.80;;
78228;SDS011;67502;49.142;9.124;2023-02-07T10:32:58;13.45;;;9.25;;
78228;SDS011;67502;49.142;9.124;2023-02-07T10:38:02;15.25;;;9.50;;
78228;SDS011;67502;49.142;9.124;2023-02-07T10:40:33;14.70;;;10.13;;
78228;SDS011;67502;49.142;9.124;2023-02-07T10:46:04;17.23;;;9.32;;
78228;SDS011;67502;49.142;9.124;2023-02-07T10:48:32;15.88;;;9.88;;
78228;SDS011;67502;49.142;9.124;2023-02-07T10:51:01;14.73;;;9.10;;
78228;SDS011;67502;49.142;9.124;2023-02-07T10:53:40;14.52;;;9.30;;
78228;SDS011;67502;49.142;9.124;2023-02-07T10:56:25;15.02;;;9.63;;
78228;SDS011;67502;49.142;9.124;2023-02-07T10:58:54;16.80;;;9.88;;
78228;SDS011;67502;49.142;9.124;2023-02-07T11:01:23;16.08;;;9.55;;
78228;SDS011;67502;49.142;9.124;2023-02-07T11:03:51;11.15;;;7.88;;
78228;SDS011;67502;49.142;9.124;2023-02-07T11:06:29;15.02;;;9.43;;
78228;SDS011;67502;49.142;9.124;2023-02-07T11:11:48;15.40;;;8.73;;
78228;SDS011;67502;49.142;9.124;2023-02-07T11:14:22;14.60;;;9.43;;
78228;SDS011;67502;49.142;9.124;2023-02-07T11:16:54;13.32;;;9.00;;
78228;SDS011;67502;49.142;9.124;2023-02-07T11:19:23;16.50;;;9.38;;
78228;SDS011;67502;49.142;9.124;2023-02-07T11:22:13;14.55;;;8.82;;
78228;SDS011;67502;49.142;9.124;2023-02-07T11:24:44;15.50;;;9.57;;
78228;SDS011;67502;49.142;9.124;2023-02-07T11:27:18;16.75;;;8.35;;
78228;SDS011;67502;49.142;9.124;2023-02-07T11:30:03;14.90;;;8.45;;
78228;SDS011;67502;49.142;9.124;2023-02-07T11:32:33;14.15;;;8.65;;
78228;SDS011;67502;49.142;9.124;2023-02-07T11:35:04;13.32;;;8.63;;
78228;SDS011;67502;49.142;9.124;2023-02-07T11:37:37;12.43;;;8.38;;
78228;SDS011;67502;49.142;9.124;2023-02-07T11:42:56;10.23;;;7.38;;
78228;SDS011;67502;49.142;9.124;2023-02-07T11:45:29;11.25;;;8.32;;
78228;SDS011;67502;49.142;9.124;2023-02-07T11:47:57;13.25;;;7.95;;
78228;SDS011;67502;49.142;9.124;2023-02-07T11:50:26;14.10;;;7.82;;
78228;SDS011;67502;49.142;9.124;2023-02-07T11:52:56;12.48;;;7.97;;
78228;SDS011;67502;49.142;9.124;2023-02-07T11:55:26;16.67;;;8.63;;
78228;SDS011;67502;49.142;9.124;2023-02-07T12:01:14;13.35;;;7.97;;
78228;SDS011;67502;49.142;9.124;2023-02-07T12:04:29;10.57;;;7.20;;
78228;SDS011;67502;49.142;9.124;2023-02-07T12:06:42;11.15;;;7.53;;
78228;SDS011;67502;49.142;9.124;2023-02-07T12:09:29;12.40;;;8.55;;
78228;SDS011;67502;49.142;9.124;2023-02-07T12:12:08;15.38;;;8.70;;
78228;SDS011;67502;49.142;9.124;2023-02-07T12:14:42;14.07;;;7.88;;
78228;SDS011;67502;49.142;9.124;2023-02-07T12:17:17;15.35;;;9.38;;
78228;SDS011;67502;49.142;9.124;2023-02-07T12:19:52;13.98;;;8.35;;
78228;SDS011;67502;49.142;9.124;2023-02-07T12:22:30;11.73;;;7.72;;
78228;SDS011;67502;49.142;9.124;2023-02-07T12:25:15;13.95;;;7.70;;
78228;SDS011;67502;49.142;9.124;2023-02-07T12:27:46;14.75;;;8.50;;
78228;SDS011;67502;49.142;9.124;2023-02-07T12:30:18;13.23;;;8.07;;
78228;SDS011;67502;49.142;9.124;2023-02-07T12:35:57;12.15;;;7.47;;
78228;SDS011;67502;49.142;9.124;2023-02-07T12:38:31;13.18;;;7.43;;
78228;SDS011;67502;49.142;9.124;2023-02-07T12:41:11;18.80;;;7.95;;
78228;SDS011;67502;49.142;9.124;2023-02-07T12:43:56;11.70;;;7.35;;
78228;SDS011;67502;49.142;9.124;2023-02-07T13:05:56;10.00;;;6.68;;
78228;SDS011;67502;49.142;9.124;2023-02-07T13:09:09;11.35;;;6.70;;
78228;SDS011;67502;49.142;9.124;2023-02-07T13:11:34;11.10;;;7.07;;
78228;SDS011;67502;49.142;9.124;2023-02-07T13:19:38;10.27;;;5.95;;
78228;SDS011;67502;49.142;9.124;2023-02-07T13:22:13;12.68;;;6.18;;
78228;SDS011;67502;49.142;9.124;2023-02-07T13:24:50;12.45;;;7.43;;
78228;SDS011;67502;49.142;9.124;2023-02-07T13:27:18;15.55;;;6.82;;
78228;SDS011;67502;49.142;9.124;2023-02-07T13:29:47;11.77;;;6.25;;
78228;SDS011;67502;49.142;9.124;2023-02-07T13:32:19;7.82;;;5.80;;
78228;SDS011;67502;49.142;9.124;2023-02-07T13:34:52;11.82;;;6.03;;
78228;SDS011;67502;49.142;9.124;2023-02-07T13:37:27;9.48;;;6.20;;
78228;SDS011;67502;49.142;9.124;2023-02-07T13:40:37;10.43;;;5.80;;
78228;SDS011;67502;49.142;9.124;2023-02-07T13:43:26;8.85;;;5.78;;
78228;SDS011;67502;49.142;9.124;2023-02-07T13:48:41;12.93;;;6.65;;
78228;SDS011;67502;49.142;9.124;2023-02-07T13:51:28;8.98;;;5.45;;
78228;SDS011;67502;49.142;9.124;2023-02-07T13:54:16;14.77;;;6.25;;
78228;SDS011;67502;49.142;9.124;2023-02-07T13:56:57;10.50;;;6.13;;
78228;SDS011;67502;49.142;9.124;2023-02-07T14:00:03;11.18;;;6.22;;
78228;SDS011;67502;49.142;9.124;2023-02-07T14:02:33;11.85;;;5.82;;
78228;SDS011;67502;49.142;9.124;2023-02-07T14:05:07;9.80;;;5.82;;
78228;SDS011;67502;49.142;9.124;2023-02-07T14:07:36;9.48;;;5.75;;
78228;SDS011;67502;49.142;9.124;2023-02-07T14:10:04;10.25;;;5.75;;
78228;SDS011;67502;49.142;9.124;2023-02-07T14:12:32;9.23;;;6.05;;
78228;SDS011;67502;49.142;9.124;2023-02-07T14:17:58;11.80;;;6.00;;
78228;SDS011;67502;49.142;9.124;2023-02-07T14:30:28;11.68;;;5.80;;
78228;SDS011;67502;49.142;9.124;2023-02-07T14:33:10;12.13;;;5.88;;
78228;SDS011;67502;49.142;9.124;2023-02-07T14:41:28;9.18;;;5.38;;
78228;SDS011;67502;49.142;9.124;2023-02-07T14:43:57;10.07;;;5.60;;
78228;SDS011;67502;49.142;9.124;2023-02-07T14:46:35;8.43;;;5.07;;
78228;SDS011;67502;49.142;9.124;2023-02-07T14:49:11;11.23;;;5.25;;
78228;SDS011;67502;49.142;9.124;2023-02-07T14:51:51;10.05;;;5.30;;
78228;SDS011;67502;49.142;9.124;2023-02-07T15:02:38;15.70;;;5.50;;
78228;SDS011;67502;49.142;9.124;2023-02-07T15:05:31;9.50;;;5.53;;
78228;SDS011;67502;49.142;9.124;2023-02-07T15:10:36;9.35;;;5.72;;
78228;SDS011;67502;49.142;9.124;2023-02-07T15:15:55;10.15;;;5.25;;
78228;SDS011;67502;49.142;9.124;2023-02-07T15:18:27;12.00;;;5.13;;
78228;SDS011;67502;49.142;9.124;2023-02-07T15:20:57;11.93;;;5.57;;
78228;SDS011;67502;49.142;9.124;2023-02-07T15:23:25;10.55;;;6.13;;
78228;SDS011;67502;49.142;9.124;2023-02-07T15:25:53;12.75;;;5.32;;
78228;SDS011;67502;49.142;9.124;2023-02-07T15:33:40;10.52;;;5.53;;
78228;SDS011;67502;49.142;9.124;2023-02-07T15:36:25;11.48;;;6.57;;
78228;SDS011;67502;49.142;9.124;2023-02-07T15:38:55;10.80;;;5.22;;
78228;SDS011;67502;49.142;9.124;2023-02-07T15:41:22;13.70;;;5.35;;
78228;SDS011;67502;49.142;9.124;2023-02-07T15:46:41;9.73;;;5.53;;
78228;SDS011;67502;49.142;9.124;2023-02-07T15:49:09;10.55;;;4.97;;
78228;SDS011;67502;49.142;9.124;2023-02-07T15:51:36;19.45;;;5.60;;
78228;SDS011;67502;49.142;9.124;2023-02-07T15:54:06;10.77;;;4.65;;
78228;SDS011;67502;49.142;9.124;2023-02-07T15:56:43;10.52;;;6.20;;
78228;SDS011;67502;49.142;9.124;2023-02-07T15:59:15;8.65;;;4.60;;
78228;SDS011;67502;49.142;9.124;2023-02-07T16:01:50;10.30;;;5.25;;
78228;SDS011;67502;49.142;9.124;2023-02-07T16:04:21;8.45;;;5.07;;
78228;SDS011;67502;49.142;9.124;2023-02-07T16:07:10;10.15;;;5.18;;
78228;SDS011;67502;49.142;9.124;2023-02-07T16:09:39;13.15;;;5.00;;
78228;SDS011;67502;49.142;9.124;2023-02-07T16:18:00;10.85;;;5.10;;
78228;SDS011;67502;49.142;9.124;2023-02-07T16:20:28;10.43;;;5.65;;
78228;SDS011;67502;49.142;9.124;2023-02-07T16:23:01;10.00;;;5.22;;
78228;SDS011;67502;49.142;9.124;2023-02-07T16:25:32;11.93;;;6.00;;
78228;SDS011;67502;49.142;9.124;2023-02-07T16:28:00;12.82;;;6.32;;
78228;SDS011;67502;49.142;9.124;2023-02-07T16:30:30;14.63;;;6.47;;
78228;SDS011;67502;49.142;9.124;2023-02-07T16:33:06;13.65;;;6.75;;
78228;SDS011;67502;49.142;9.124;2023-02-07T16:35:38;13.95;;;7.47;;
78228;SDS011;67502;49.142;9.124;2023-02-07T16:38:04;15.68;;;7.20;;
78228;SDS011;67502;49.142;9.124;2023-02-07T16:40:31;14.20;;;7.25;;
78228;SDS011;67502;49.142;9.124;2023-02-07T16:42:57;13.77;;;6.50;;
78228;SDS011;67502;49.142;9.124;2023-02-07T16:45:27;14.65;;;6.80;;
78228;SDS011;67502;49.142;9.124;2023-02-07T16:47:55;13.18;;;6.85;;
78228;SDS011;67502;49.142;9.124;2023-02-07T16:50:27;16.15;;;6.68;;
78228;SDS011;67502;49.142;9.124;2023-02-07T16:52:55;11.77;;;6.38;;
78228;SDS011;67502;49.142;9.124;2023-02-07T16:55:24;14.02;;;6.57;;
78228;SDS011;67502;49.142;9.124;2023-02-07T16:57:52;14.93;;;6.78;;
78228;SDS011;67502;49.142;9.124;2023-02-07T17:00:21;16.58;;;7.65;;
78228;SDS011;67502;49.142;9.124;2023-02-07T17:02:50;16.02;;;7.57;;
78228;SDS011;67502;49.142;9.124;2023-02-07T17:05:18;10.50;;;6.35;;
78228;SDS011;67502;49.142;9.124;2023-02-07T17:07:47;15.73;;;7.60;;
78228;SDS011;67502;49.142;9.124;2023-02-07T17:12:50;14.18;;;6.88;;
78228;SDS011;67502;49.142;9.124;2023-02-07T17:15:17;12.27;;;6.95;;
78228;SDS011;67502;49.142;9.124;2023-02-07T17:17:43;15.10;;;7.03;;
78228;SDS011;67502;49.142;9.124;2023-02-07T17:20:20;14.68;;;7.50;;
78228;SDS011;67502;49.142;9.124;2023-02-07T17:22:49;15.68;;;7.45;;
78228;SDS011;67502;49.142;9.124;2023-02-07T17:25:17;13.27;;;7.35;;
78228;SDS011;67502;49.142;9.124;2023-02-07T17:27:45;15.50;;;7.57;;
78228;SDS011;67502;49.142;9.124;2023-02-07T17:32:41;12.43;;;7.72;;
78228;SDS011;67502;49.142;9.124;2023-02-07T17:35:08;13.10;;;7.53;;
78228;SDS011;67502;49.142;9.124;2023-02-07T17:37:35;19.02;;;9.63;;
78228;SDS011;67502;49.142;9.124;2023-02-07T17:40:01;12.90;;;7.70;;
78228;SDS011;67502;49.142;9.124;2023-02-07T17:42:29;14.52;;;8.23;;
78228;SDS011;67502;49.142;9.124;2023-02-07T17:44:55;18.45;;;9.32;;
78228;SDS011;67502;49.142;9.124;2023-02-07T17:47:21;17.48;;;9.07;;
78228;SDS011;67502;49.142;9.124;2023-02-07T17:49:48;15.98;;;9.40;;
78228;SDS011;67502;49.142;9.124;2023-02-07T17:52:15;23.60;;;9.75;;
78228;SDS011;67502;49.142;9.124;2023-02-07T17:54:41;22.08;;;11.07;;
78228;SDS011;67502;49.142;9.124;2023-02-07T17:57:11;19.63;;;10.55;;
78228;SDS011;67502;49.142;9.124;2023-02-07T17:59:38;26.38;;;10.85;;
78228;SDS011;67502;49.142;9.124;2023-02-07T18:02:05;22.60;;;11.80;;
78228;SDS011;67502;49.142;9.124;2023-02-07T18:04:31;21.88;;;10.88;;